createdAt,value
2018-03-07T00:00:50.588Z,99.90
2018-03-07T00:03:18.601Z,99.90
2018-03-07T00:05:48.390Z,99.90
2018-03-07T00:08:18.398Z,99.90
2018-03-07T00:10:46.401Z,99.90
2018-03-07T00:13:15.257Z,99.90
2018-03-07T00:15:43.221Z,99.90
2018-03-07T00:18:12.213Z,99.90
2018-03-07T00:20:42.245Z,99.90
2018-03-07T00:23:11.221Z,99.90
2018-03-07T00:25:39.233Z,99.90
2018-03-07T00:28:07.253Z,99.90
2018-03-07T00:30:35.269Z,99.90
2018-03-07T00:33:07.405Z,99.90
2018-03-07T00:35:39.049Z,99.90
2018-03-07T00:38:09.081Z,99.90
2018-03-07T00:40:41.329Z,99.90
2018-03-07T00:43:13.313Z,99.90
2018-03-07T00:45:41.325Z,99.90
2018-03-07T00:48:09.333Z,99.90
2018-03-07T00:50:39.345Z,99.90
2018-03-07T00:53:10.389Z,99.90
2018-03-07T00:55:43.621Z,99.90
2018-03-07T00:58:15.243Z,99.90
2018-03-07T01:00:44.233Z,99.90
2018-03-07T01:03:13.492Z,99.90
2018-03-07T01:05:42.413Z,99.90
2018-03-07T01:08:10.439Z,99.90
2018-03-07T01:10:41.521Z,99.90
2018-03-07T01:13:09.574Z,99.90
2018-03-07T01:15:37.589Z,99.90
2018-03-07T01:18:08.626Z,99.90
2018-03-07T01:20:36.637Z,99.90
2018-03-07T01:23:05.565Z,99.90
2018-03-07T01:25:33.573Z,99.90
2018-03-07T01:28:04.277Z,99.90
2018-03-07T01:30:32.297Z,99.90
2018-03-07T01:33:01.234Z,99.90
2018-03-07T01:35:29.249Z,99.90
2018-03-07T01:37:58.940Z,99.90
2018-03-07T01:40:27.729Z,99.90
2018-03-07T01:42:56.509Z,99.90
2018-03-07T01:45:25.476Z,99.90
2018-03-07T01:47:53.509Z,99.90
2018-03-07T01:50:21.728Z,99.90
2018-03-07T01:52:50.716Z,99.90
2018-03-07T01:55:22.669Z,99.90
2018-03-07T01:57:55.356Z,99.90
2018-03-07T02:00:23.373Z,99.90
2018-03-07T02:02:51.384Z,99.90
2018-03-07T02:05:19.396Z,99.90
2018-03-07T02:07:54.468Z,99.90
2018-03-07T02:10:23.497Z,99.90
2018-03-07T02:12:51.517Z,99.90
2018-03-07T02:15:23.017Z,99.90
2018-03-07T02:17:55.789Z,99.90
2018-03-07T02:20:37.025Z,99.90
2018-03-07T02:23:06.909Z,99.90
2018-03-07T02:25:34.917Z,99.90
2018-03-07T02:28:08.476Z,99.90
2018-03-07T02:30:37.445Z,99.90
2018-03-07T02:33:05.485Z,99.90
2018-03-07T02:35:50.540Z,99.90
2018-03-07T02:38:20.523Z,99.90
2018-03-07T02:40:48.540Z,99.90
2018-03-07T02:43:18.477Z,99.90
2018-03-07T02:45:46.493Z,99.90
2018-03-07T02:48:15.273Z,99.90
2018-03-07T02:50:46.096Z,99.90
2018-03-07T02:53:15.069Z,99.90
2018-03-07T02:55:43.084Z,99.90
2018-03-07T02:58:12.029Z,99.90
2018-03-07T03:00:41.013Z,99.90
2018-03-07T03:03:14.418Z,99.90
2018-03-07T03:05:43.411Z,99.90
2018-03-07T03:08:15.060Z,99.90
2018-03-07T03:10:43.080Z,99.90
2018-03-07T03:13:13.041Z,99.90
2018-03-07T03:15:41.061Z,99.90
2018-03-07T03:18:09.080Z,99.90
2018-03-07T03:20:42.592Z,99.90
2018-03-07T03:23:12.601Z,99.90
2018-03-07T03:25:52.730Z,99.90
2018-03-07T03:28:34.524Z,99.90
2018-03-07T03:31:06.721Z,99.90
2018-03-07T03:33:36.637Z,99.90
2018-03-07T03:36:04.653Z,99.90
2018-03-07T03:38:33.581Z,99.90
2018-03-07T03:41:02.564Z,99.90
2018-03-07T03:43:31.556Z,99.90
2018-03-07T03:45:59.576Z,99.90
2018-03-07T03:48:28.552Z,99.90
2018-03-07T03:50:56.601Z,99.90
2018-03-07T03:53:26.612Z,99.90
2018-03-07T03:55:55.596Z,99.90
2018-03-07T03:58:24.392Z,99.90
2018-03-07T04:00:53.392Z,99.90
2018-03-07T04:03:21.392Z,99.90
2018-03-07T04:05:50.340Z,99.90
2018-03-07T04:08:19.333Z,99.90
2018-03-07T04:10:47.344Z,99.90
2018-03-07T04:13:20.704Z,99.90
2018-03-07T04:15:49.048Z,99.90
2018-03-07T04:18:24.284Z,99.90
2018-03-07T04:20:52.300Z,99.90
2018-03-07T04:23:22.297Z,99.90
2018-03-07T04:25:53.443Z,99.90
2018-03-07T04:28:27.248Z,99.90
2018-03-07T04:30:57.256Z,99.90
2018-03-07T04:33:28.536Z,99.90
2018-03-07T04:35:56.536Z,99.90
2018-03-07T04:38:26.489Z,99.90
2018-03-07T04:40:55.476Z,99.90
2018-03-07T04:43:25.404Z,99.90
2018-03-07T04:45:55.432Z,99.90
2018-03-07T04:48:27.076Z,99.90
2018-03-07T04:50:55.104Z,99.90
2018-03-07T04:53:23.137Z,99.90
2018-03-07T04:55:52.104Z,99.90
2018-03-07T04:58:20.144Z,99.90
2018-03-07T05:00:49.168Z,99.90
2018-03-07T05:03:23.468Z,99.90
2018-03-07T05:05:56.680Z,99.90
2018-03-07T05:08:24.700Z,99.90
2018-03-07T05:10:52.712Z,99.90
2018-03-07T05:13:21.724Z,99.90
2018-03-07T05:15:55.688Z,99.90
2018-03-07T05:18:28.821Z,99.90
2018-03-07T05:20:57.056Z,99.90
2018-03-07T05:23:35.274Z,99.90
2018-03-07T05:26:06.529Z,99.90
2018-03-07T05:28:34.876Z,99.90
2018-03-07T05:31:09.953Z,99.90
2018-03-07T05:33:39.956Z,99.90
2018-03-07T05:36:10.012Z,99.90
2018-03-07T05:38:39.792Z,99.90
2018-03-07T05:41:09.822Z,99.90
2018-03-07T05:43:38.800Z,99.90
2018-03-07T05:46:08.472Z,99.90
2018-03-07T05:48:36.484Z,99.90
2018-03-07T05:51:10.268Z,99.90
2018-03-07T05:53:38.288Z,99.90
2018-03-07T05:56:08.068Z,99.90
2018-03-07T05:58:39.742Z,99.90
2018-03-07T06:01:07.748Z,99.90
2018-03-07T06:03:36.686Z,99.90
2018-03-07T06:06:08.320Z,99.90
2018-03-07T06:08:36.328Z,99.90
2018-03-07T06:11:10.128Z,99.90
2018-03-07T06:13:41.137Z,99.90
2018-03-07T06:16:09.156Z,99.90
2018-03-07T06:18:51.148Z,99.90
2018-03-07T06:21:21.839Z,99.90
2018-03-07T06:23:54.020Z,99.90
2018-03-07T06:26:22.036Z,99.90
2018-03-07T06:28:50.967Z,99.90
2018-03-07T06:31:19.968Z,99.90
2018-03-07T06:33:47.976Z,99.90
2018-03-07T06:36:19.992Z,99.90
2018-03-07T06:38:51.756Z,99.90
2018-03-07T06:41:20.752Z,99.90
2018-03-07T06:43:48.760Z,99.90
2018-03-07T06:46:16.772Z,99.90
2018-03-07T06:48:46.900Z,99.90
2018-03-07T06:51:15.916Z,99.90
2018-03-07T06:53:43.953Z,99.90
2018-03-07T06:56:11.952Z,99.90
2018-03-07T06:58:44.547Z,99.90
2018-03-07T07:01:13.500Z,99.90
2018-03-07T07:03:42.526Z,99.90
2018-03-07T07:06:11.487Z,99.90
2018-03-07T07:08:39.491Z,99.90
2018-03-07T07:11:10.180Z,99.90
2018-03-07T07:13:40.196Z,99.90
2018-03-07T07:16:09.220Z,99.90
2018-03-07T07:18:44.608Z,99.90
2018-03-07T07:21:13.652Z,99.90
2018-03-07T07:23:41.686Z,99.90
2018-03-07T07:26:16.723Z,99.90
2018-03-07T07:28:47.780Z,99.90
2018-03-07T07:31:15.808Z,99.90
2018-03-07T07:33:48.417Z,99.90
2018-03-07T07:36:16.464Z,99.90
2018-03-07T07:38:44.477Z,99.90
2018-03-07T07:41:12.490Z,99.90
2018-03-07T07:43:42.444Z,99.90
2018-03-07T07:46:16.256Z,99.90
2018-03-07T07:48:44.278Z,99.90
2018-03-07T07:51:12.292Z,99.90
2018-03-07T07:53:44.576Z,99.90
2018-03-07T07:56:14.568Z,99.90
2018-03-07T07:58:42.585Z,99.90
2018-03-07T08:01:11.364Z,99.90
2018-03-07T08:03:42.044Z,99.90
2018-03-07T08:06:10.064Z,99.90
2018-03-07T08:08:46.568Z,99.90
2018-03-07T08:11:19.596Z,99.90
2018-03-07T08:13:48.582Z,99.90
2018-03-07T08:16:16.592Z,99.90
2018-03-07T08:18:45.416Z,99.90
2018-03-07T08:21:15.036Z,99.90
2018-03-07T08:23:43.044Z,99.90
2018-03-07T08:26:11.824Z,99.90
2018-03-07T08:28:40.716Z,99.90
2018-03-07T08:31:13.100Z,99.90
2018-03-07T08:33:44.843Z,99.90
2018-03-07T08:36:16.685Z,99.90
2018-03-07T08:38:45.700Z,99.90
2018-03-07T08:41:14.480Z,99.90
2018-03-07T08:43:43.272Z,99.90
2018-03-07T08:46:13.981Z,99.90
2018-03-07T08:48:45.640Z,99.90
2018-03-07T08:51:14.616Z,99.90
2018-03-07T08:53:47.308Z,99.90
2018-03-07T08:56:15.324Z,99.90
2018-03-07T08:58:43.332Z,99.90
2018-03-07T09:01:13.358Z,99.90
2018-03-07T09:03:45.117Z,99.90
2018-03-07T09:06:16.885Z,99.90
2018-03-07T09:08:45.872Z,99.90
2018-03-07T09:11:19.608Z,99.90
2018-03-07T09:13:48.556Z,99.90
2018-03-07T09:16:16.583Z,99.90
2018-03-07T09:18:56.816Z,95.80
2018-03-07T09:21:26.597Z,94.90
2018-03-07T09:23:54.616Z,94.90
2018-03-07T09:26:22.641Z,93.10
2018-03-07T09:28:52.595Z,95.00
2018-03-07T09:31:25.120Z,96.20
2018-03-07T09:33:53.152Z,96.60
2018-03-07T09:36:23.120Z,93.10
2018-03-07T09:38:57.645Z,93.90
2018-03-07T09:41:25.648Z,91.00
2018-03-07T09:43:54.589Z,92.90
2018-03-07T09:46:23.500Z,88.00
2018-03-07T09:48:57.520Z,87.80
2018-03-07T09:51:26.652Z,95.70
2018-03-07T09:53:54.701Z,95.50
2018-03-07T09:56:22.768Z,97.70
2018-03-07T09:58:50.752Z,98.70
2018-03-07T10:01:22.153Z,99.90
2018-03-07T10:03:51.132Z,99.90
2018-03-07T10:06:20.163Z,99.80
2018-03-07T10:08:48.953Z,97.40
2018-03-07T10:11:17.741Z,99.60
2018-03-07T10:13:52.333Z,99.90
2018-03-07T10:16:20.352Z,99.90
2018-03-07T10:18:58.341Z,99.90
2018-03-07T10:21:27.121Z,99.90
2018-03-07T10:23:55.921Z,99.90
2018-03-07T10:26:23.953Z,99.90
2018-03-07T10:28:51.964Z,99.90
2018-03-07T10:31:29.884Z,99.90
2018-03-07T10:33:57.896Z,99.90
2018-03-07T10:36:25.916Z,99.90
2018-03-07T10:38:57.588Z,99.90
2018-03-07T10:41:27.525Z,99.90
2018-03-07T10:43:57.548Z,99.90
2018-03-07T10:46:30.532Z,99.90
2018-03-07T10:51:53.289Z,99.90
2018-03-07T10:54:21.348Z,99.90
2018-03-07T10:56:49.353Z,99.90
2018-03-07T10:59:17.368Z,99.90
2018-03-07T11:01:47.317Z,99.90
2018-03-07T11:04:15.312Z,99.90
2018-03-07T11:06:46.012Z,99.90
2018-03-07T11:09:24.092Z,99.90
2018-03-07T11:11:54.068Z,99.90
2018-03-07T11:14:23.032Z,99.90
2018-03-07T11:16:56.876Z,99.90
2018-03-07T11:19:27.568Z,99.90
2018-03-07T11:22:05.852Z,99.90
2018-03-07T11:24:34.872Z,99.90
2018-03-07T11:27:02.892Z,99.90
2018-03-07T11:29:33.564Z,99.90
2018-03-07T11:32:11.779Z,99.90
2018-03-07T11:34:41.792Z,99.90
2018-03-07T11:37:09.796Z,99.90
2018-03-07T11:39:38.576Z,99.90
2018-03-07T11:42:06.592Z,99.90
2018-03-07T11:44:34.624Z,99.90
2018-03-07T11:47:05.622Z,99.90
2018-03-07T11:49:38.300Z,99.90
2018-03-07T11:52:10.260Z,99.90
2018-03-07T11:54:44.760Z,99.90
2018-03-07T11:57:13.680Z,99.90
2018-03-07T11:59:45.332Z,99.90
2018-03-07T12:02:13.333Z,99.90
2018-03-07T12:04:45.992Z,99.90
2018-03-07T12:07:18.344Z,99.90
2018-03-07T12:09:46.347Z,99.90
2018-03-07T12:12:14.364Z,99.90
2018-03-07T12:14:42.370Z,99.90
2018-03-07T12:17:11.364Z,99.90
2018-03-07T12:19:39.364Z,99.90
2018-03-07T12:22:08.151Z,99.90
2018-03-07T12:24:36.920Z,99.90
2018-03-07T12:27:04.953Z,99.90
2018-03-07T12:29:32.956Z,99.90
2018-03-07T12:32:06.219Z,99.90
2018-03-07T12:34:35.251Z,99.90
2018-03-07T12:37:06.398Z,99.90
2018-03-07T12:39:34.396Z,99.90
2018-03-07T12:42:02.404Z,99.90
2018-03-07T12:44:36.856Z,99.90
2018-03-07T12:47:12.548Z,99.90
2018-03-07T12:49:41.568Z,99.90
2018-03-07T12:52:17.116Z,99.90
2018-03-07T12:54:46.108Z,99.00
2018-03-07T12:57:15.100Z,96.40
2018-03-07T12:59:47.272Z,96.30
2018-03-07T13:02:16.268Z,96.30
2018-03-07T13:04:44.284Z,98.20
2018-03-07T13:07:18.324Z,99.40
2018-03-07T13:09:47.328Z,99.90
2018-03-07T13:12:25.912Z,99.90
2018-03-07T13:14:58.004Z,99.90
2018-03-07T13:17:31.187Z,99.60
2018-03-07T13:20:00.216Z,98.90
2018-03-07T13:22:28.244Z,98.80
2018-03-07T13:24:56.288Z,98.30
2018-03-07T13:27:27.786Z,99.30
2018-03-07T13:29:55.799Z,99.90
2018-03-07T13:32:26.504Z,99.90
2018-03-07T13:34:54.525Z,99.90
2018-03-07T13:37:24.481Z,99.90
2018-03-07T13:39:55.516Z,99.90
2018-03-07T13:42:27.428Z,99.90
2018-03-07T13:44:56.356Z,99.90
2018-03-07T13:47:24.380Z,99.90
2018-03-07T13:49:52.404Z,99.90
2018-03-07T13:52:21.416Z,99.90
2018-03-07T13:54:50.403Z,99.90
2018-03-07T13:57:18.420Z,99.90
2018-03-07T13:59:46.436Z,99.90
2018-03-07T14:02:14.448Z,99.90
2018-03-07T14:04:44.651Z,99.90
2018-03-07T14:07:14.655Z,99.90
2018-03-07T14:09:42.663Z,99.90
2018-03-07T14:12:11.095Z,99.90
2018-03-07T14:14:40.080Z,99.90
2018-03-07T14:17:13.079Z,99.90
2018-03-07T14:19:54.064Z,99.90
2018-03-07T14:22:22.848Z,99.90
2018-03-07T14:24:58.856Z,99.90
2018-03-07T14:27:31.173Z,99.90
2018-03-07T14:30:00.843Z,99.90
2018-03-07T14:32:32.420Z,99.90
2018-03-07T14:35:00.388Z,99.90
2018-03-07T14:37:28.392Z,99.90
2018-03-07T14:39:57.344Z,99.90
2018-03-07T14:42:29.946Z,99.90
2018-03-07T14:44:57.960Z,99.90
2018-03-07T14:47:33.084Z,99.90
2018-03-07T14:50:12.055Z,99.20
2018-03-07T14:52:52.883Z,98.10
2018-03-07T14:55:27.672Z,98.20
2018-03-07T14:57:56.464Z,93.80
2018-03-07T15:00:26.253Z,90.00
2018-03-07T15:02:54.295Z,89.90
2018-03-07T15:05:24.324Z,88.60
2018-03-07T15:07:55.768Z,90.00
2018-03-07T15:10:24.891Z,91.20
2018-03-07T15:12:52.896Z,92.60
2018-03-07T15:15:21.823Z,91.30
2018-03-07T15:17:56.388Z,88.90
2018-03-07T15:20:25.175Z,87.20
2018-03-07T15:22:54.955Z,89.20
2018-03-07T15:25:26.792Z,89.30
2018-03-07T15:27:55.831Z,88.60
2018-03-07T15:30:45.339Z,86.80
2018-03-07T15:33:14.259Z,82.40
2018-03-07T15:35:47.896Z,80.90
2018-03-07T15:38:16.843Z,83.00
2018-03-07T15:40:49.131Z,87.60
2018-03-07T15:43:23.516Z,89.20
2018-03-07T15:45:53.479Z,88.50
2018-03-07T15:48:22.451Z,87.10
2018-03-07T15:50:55.431Z,90.40
2018-03-07T15:53:36.870Z,90.80
2018-03-07T15:56:05.643Z,90.50
2018-03-07T15:58:36.367Z,84.40
2018-03-07T16:01:06.383Z,84.40
2018-03-07T16:03:47.037Z,72.70
2018-03-07T16:06:16.935Z,67.30
2018-03-07T16:08:44.955Z,64.00
2018-03-07T16:11:18.203Z,55.40
2018-03-07T16:13:48.275Z,57.00
2018-03-07T16:16:16.305Z,59.80
2018-03-07T16:18:48.711Z,59.00
2018-03-07T16:21:16.739Z,59.70
2018-03-07T16:23:45.660Z,59.20
2018-03-07T16:26:14.496Z,67.90
2018-03-07T16:28:43.404Z,67.90
2018-03-07T16:31:14.928Z,77.00
2018-03-07T16:33:44.903Z,82.40
2018-03-07T16:36:17.427Z,85.60
2018-03-07T16:38:51.879Z,85.60
2018-03-07T16:41:20.891Z,89.20
2018-03-07T16:43:48.891Z,90.70
2018-03-07T16:46:17.823Z,92.00
2018-03-07T16:48:45.825Z,93.00
2018-03-07T16:51:16.527Z,94.10
2018-03-07T16:53:49.911Z,94.00
2018-03-07T16:56:18.842Z,94.80
2018-03-07T16:58:48.479Z,95.10
2018-03-07T17:01:16.483Z,95.50
2018-03-07T17:03:47.427Z,96.20
2018-03-07T17:06:15.427Z,96.70
2018-03-07T17:08:46.111Z,97.20
2018-03-07T17:11:14.143Z,97.20
2018-03-07T17:13:42.535Z,97.50
2018-03-07T17:16:12.507Z,97.50
2018-03-07T17:18:50.695Z,97.60
2018-03-07T17:21:28.438Z,97.60
2018-03-07T17:24:01.419Z,98.20
2018-03-07T17:26:38.622Z,98.20
2018-03-07T17:29:11.023Z,98.70
2018-03-07T17:31:42.910Z,98.80
2018-03-07T17:34:12.891Z,99.00
2018-03-07T17:36:45.363Z,99.30
2018-03-07T17:39:13.351Z,99.80
2018-03-07T17:41:42.327Z,99.90
2018-03-07T17:44:10.326Z,99.90
2018-03-07T17:46:43.390Z,99.90
2018-03-07T17:49:11.427Z,99.90
2018-03-07T17:51:40.343Z,99.90
2018-03-07T17:54:08.351Z,99.90
2018-03-07T17:56:41.195Z,99.90
2018-03-07T17:59:10.193Z,99.90
2018-03-07T18:01:38.195Z,99.90
2018-03-07T18:04:08.883Z,99.80
2018-03-07T18:06:45.167Z,99.50
2018-03-07T18:09:19.955Z,99.60
2018-03-07T18:11:48.891Z,99.40
2018-03-07T18:14:16.979Z,98.90
2018-03-07T18:16:50.511Z,98.60
2018-03-07T18:19:21.195Z,98.10
2018-03-07T18:21:50.179Z,98.10
2018-03-07T18:24:18.193Z,98.10
2018-03-07T18:26:47.975Z,98.20
2018-03-07T18:29:28.479Z,98.20
2018-03-07T18:31:56.486Z,97.90
2018-03-07T18:34:30.030Z,98.10
2018-03-07T18:36:59.990Z,98.20
2018-03-07T18:39:29.938Z,98.20
2018-03-07T18:41:57.962Z,98.20
2018-03-07T18:44:26.002Z,98.30
2018-03-07T18:46:54.770Z,98.20
2018-03-07T18:49:22.775Z,98.20
2018-03-07T18:51:53.518Z,98.30
2018-03-07T18:54:21.614Z,98.30
2018-03-07T18:56:52.466Z,98.50
2018-03-07T18:59:21.442Z,98.60
2018-03-07T19:01:50.438Z,98.80
2018-03-07T19:04:20.318Z,98.80
2018-03-07T19:06:53.750Z,98.60
2018-03-07T19:09:23.782Z,98.60
2018-03-07T19:11:51.782Z,98.90
2018-03-07T19:14:19.790Z,98.90
2018-03-07T19:16:53.682Z,99.00
2018-03-07T19:19:25.044Z,99.50
2018-03-07T19:21:53.942Z,99.90
2018-03-07T19:24:22.826Z,99.80
2018-03-07T19:26:52.780Z,99.90
2018-03-07T19:29:21.754Z,99.90
2018-03-07T19:31:49.746Z,99.90
2018-03-07T19:34:20.410Z,99.90
2018-03-07T19:36:52.082Z,99.90
2018-03-07T19:39:21.998Z,99.90
2018-03-07T19:41:50.926Z,99.90
2018-03-07T19:44:18.922Z,99.90
2018-03-07T19:46:48.678Z,99.90
2018-03-07T19:49:16.686Z,99.90
2018-03-07T19:51:46.445Z,99.90
2018-03-07T19:54:14.454Z,99.90
2018-03-07T19:56:54.750Z,99.90
2018-03-07T19:59:23.754Z,99.90
2018-03-07T20:01:53.693Z,99.90
2018-03-07T20:04:21.709Z,99.90
2018-03-07T20:06:52.402Z,99.90
2018-03-07T20:09:21.376Z,99.90
2018-03-07T20:11:50.370Z,99.90
2018-03-07T20:14:20.305Z,99.90
2018-03-07T20:16:56.210Z,99.90
2018-03-07T20:19:35.145Z,99.90
2018-03-07T20:22:03.174Z,99.90
2018-03-07T20:24:31.965Z,99.90
2018-03-07T20:27:01.771Z,99.90
2018-03-07T20:29:34.638Z,99.90
2018-03-07T20:32:03.621Z,99.90
2018-03-07T20:34:31.862Z,99.90
2018-03-07T20:37:00.777Z,99.90
2018-03-07T20:39:29.710Z,99.90
2018-03-07T20:41:57.732Z,99.90
2018-03-07T20:44:30.933Z,99.90
2018-03-07T20:47:11.325Z,99.90
2018-03-07T20:49:42.009Z,99.90
2018-03-07T20:52:10.046Z,99.90
2018-03-07T20:54:38.817Z,99.90
2018-03-07T20:57:09.721Z,99.90
2018-03-07T20:59:38.961Z,99.90
2018-03-07T21:02:15.198Z,99.90
2018-03-07T21:04:44.328Z,99.90
2018-03-07T21:07:12.570Z,99.90
2018-03-07T21:09:41.436Z,99.90
2018-03-07T21:12:10.357Z,99.90
2018-03-07T21:14:38.362Z,99.90
2018-03-07T21:17:08.317Z,99.90
2018-03-07T21:19:36.350Z,99.90
2018-03-07T21:22:09.959Z,99.90
2018-03-07T21:24:38.729Z,99.90
2018-03-07T21:27:07.666Z,99.90
2018-03-07T21:29:35.709Z,99.90
2018-03-07T21:32:07.306Z,99.90
2018-03-07T21:34:35.361Z,99.90
2018-03-07T21:37:03.369Z,99.90
2018-03-07T21:39:32.145Z,99.90
2018-03-07T21:42:05.925Z,99.90
2018-03-07T21:44:34.914Z,99.90
2018-03-07T21:47:02.933Z,99.90
2018-03-07T21:49:31.894Z,99.90
2018-03-07T21:52:01.881Z,99.90
2018-03-07T21:54:34.576Z,99.90
2018-03-07T21:57:09.081Z,99.90
2018-03-07T21:59:39.026Z,99.90
2018-03-07T22:02:09.017Z,99.90
2018-03-07T22:04:39.182Z,99.90
2018-03-07T22:07:07.956Z,99.90
2018-03-07T22:09:37.745Z,99.90
2018-03-07T22:12:05.781Z,99.90
2018-03-07T22:14:35.725Z,99.90
2018-03-07T22:17:07.797Z,99.90
2018-03-07T22:19:35.809Z,99.90
2018-03-07T22:22:03.882Z,99.90
2018-03-07T22:24:32.856Z,99.90
2018-03-07T22:27:07.349Z,99.90
2018-03-07T22:29:37.341Z,99.90
2018-03-07T22:32:06.447Z,99.90
2018-03-07T22:34:34.469Z,99.90
2018-03-07T22:37:03.245Z,99.90
2018-03-07T22:39:34.069Z,99.90
2018-03-07T22:42:06.363Z,99.90
2018-03-07T22:44:35.360Z,99.90
2018-03-07T22:47:04.277Z,99.90
2018-03-07T22:49:33.292Z,99.90
2018-03-07T22:52:03.305Z,99.90
2018-03-07T22:54:32.312Z,99.90
2018-03-07T22:57:03.353Z,99.90
2018-03-07T22:59:34.989Z,99.90
2018-03-07T23:02:04.033Z,99.90
2018-03-07T23:04:34.093Z,99.90
2018-03-07T23:07:03.088Z,99.90
2018-03-07T23:09:31.104Z,99.90
2018-03-07T23:12:00.928Z,99.90
2018-03-07T23:14:29.877Z,99.90
2018-03-07T23:16:57.885Z,99.90
2018-03-07T23:19:26.829Z,99.90
2018-03-07T23:21:54.852Z,99.90
2018-03-07T23:24:22.882Z,99.90
2018-03-07T23:26:52.876Z,99.90
2018-03-07T23:29:20.884Z,99.90
2018-03-07T23:31:55.268Z,99.90
2018-03-07T23:34:24.248Z,99.90
2018-03-07T23:36:54.369Z,99.90
2018-03-07T23:39:22.372Z,99.90
2018-03-07T23:41:52.153Z,99.90
2018-03-07T23:44:27.577Z,99.90
2018-03-07T23:46:57.344Z,99.90
2018-03-07T23:49:28.065Z,99.90
2018-03-07T23:51:59.692Z,99.90
2018-03-07T23:54:27.706Z,99.90
2018-03-07T23:56:56.493Z,99.90
2018-03-07T23:59:25.265Z,99.90
